createdAt,value
2022-11-17T00:01:20.503Z,98720.28
2022-11-17T00:03:48.313Z,98715.53
2022-11-17T00:06:15.362Z,98708.94
2022-11-17T00:08:41.964Z,98665.41
2022-11-17T00:11:08.722Z,98644.13
2022-11-17T00:13:54.244Z,98668.97
2022-11-17T00:16:21.552Z,98689.94
2022-11-17T00:19:08.158Z,98672.09
2022-11-17T00:21:34.839Z,98629.47
2022-11-17T00:24:01.988Z,98667.16
2022-11-17T00:26:33.498Z,98656.00
2022-11-17T00:29:01.765Z,98655.38
2022-11-17T00:31:48.254Z,98649.59
2022-11-17T00:34:20.084Z,98605.91
2022-11-17T00:36:47.852Z,98632.81
2022-11-17T00:39:15.783Z,98635.28
2022-11-17T00:41:42.494Z,98625.19
2022-11-17T00:44:09.359Z,98632.00
2022-11-17T00:46:37.437Z,98623.44
2022-11-17T00:49:08.852Z,98615.13
2022-11-17T00:51:35.944Z,98608.91
2022-11-17T00:54:03.263Z,98608.03
2022-11-17T00:56:30.002Z,98604.16
2022-11-17T00:58:56.908Z,98578.91
2022-11-17T01:01:23.610Z,98593.34
2022-11-17T01:03:50.226Z,98546.81
2022-11-17T01:06:19.176Z,98574.84
2022-11-17T01:08:46.449Z,98571.44
2022-11-17T01:11:18.208Z,98557.41
2022-11-17T01:13:47.079Z,98549.25
2022-11-17T01:16:16.804Z,98555.88
2022-11-17T01:18:45.127Z,98534.88
2022-11-17T01:21:13.003Z,98490.63
2022-11-17T01:23:40.880Z,98549.69
2022-11-17T01:26:09.759Z,98534.03
2022-11-17T01:28:36.820Z,98536.47
2022-11-17T01:31:06.225Z,98519.94
2022-11-17T01:33:33.169Z,98511.44
2022-11-17T01:36:01.768Z,98506.38
2022-11-17T01:38:28.270Z,98500.41
2022-11-17T01:41:06.809Z,98504.16
2022-11-17T01:43:48.288Z,98487.50
2022-11-17T01:46:29.429Z,98495.19
2022-11-17T01:49:00.728Z,98434.72
2022-11-17T01:51:28.143Z,98481.38
2022-11-17T01:53:54.658Z,98480.91
2022-11-17T01:56:25.130Z,98475.16
2022-11-17T01:58:55.230Z,98463.38
2022-11-17T02:01:21.851Z,98439.75
2022-11-17T02:03:49.400Z,98449.66
2022-11-17T02:06:20.849Z,98454.63
2022-11-17T02:08:48.655Z,98435.53
2022-11-17T02:11:17.639Z,98433.34
2022-11-17T02:13:45.057Z,98436.19
2022-11-17T02:16:15.787Z,98433.00
2022-11-17T02:18:42.979Z,98399.91
2022-11-17T02:21:37.484Z,98424.19
2022-11-17T02:24:18.902Z,98389.81
2022-11-17T02:27:10.218Z,98415.47
2022-11-17T02:29:48.525Z,98364.81
2022-11-17T02:32:19.002Z,98413.19
2022-11-17T02:35:11.346Z,98411.72
2022-11-17T02:37:48.173Z,98398.34
2022-11-17T02:40:29.301Z,98395.75
2022-11-17T02:43:17.340Z,98380.75
2022-11-17T02:45:50.033Z,98399.34
2022-11-17T02:48:19.824Z,98367.81
2022-11-17T02:50:46.898Z,98390.63
2022-11-17T02:53:13.718Z,98379.34
2022-11-17T02:55:40.193Z,98365.59
2022-11-17T02:58:11.998Z,98370.22
2022-11-17T03:00:53.033Z,98368.94
2022-11-17T03:03:31.164Z,98351.72
2022-11-17T03:06:59.398Z,98348.03
2022-11-17T03:09:38.453Z,98341.63
2022-11-17T03:12:22.298Z,98304.31
2022-11-17T03:15:19.720Z,98285.31
2022-11-17T03:18:04.273Z,98318.91
2022-11-17T03:20:40.984Z,98325.59
2022-11-17T03:23:13.148Z,98335.47
2022-11-17T03:25:44.249Z,98317.69
2022-11-17T03:28:11.619Z,98301.75
2022-11-17T03:30:41.193Z,98319.69
2022-11-17T03:33:12.466Z,98326.31
2022-11-17T03:35:46.315Z,98319.34
2022-11-17T03:38:16.681Z,98318.69
2022-11-17T03:40:46.783Z,98316.94
2022-11-17T03:43:15.486Z,98302.94
2022-11-17T03:45:45.632Z,98296.38
2022-11-17T03:48:33.552Z,98301.78
2022-11-17T03:51:09.252Z,98282.19
2022-11-17T03:53:36.446Z,98280.44
2022-11-17T03:56:09.331Z,98280.34
2022-11-17T03:58:42.769Z,98276.22
2022-11-17T04:01:09.740Z,98220.06
2022-11-17T04:03:38.252Z,98264.00
2022-11-17T04:06:05.112Z,98264.94
2022-11-17T04:08:31.857Z,98261.16
2022-11-17T04:11:17.022Z,98265.47
2022-11-17T04:14:01.979Z,98266.34
2022-11-17T04:16:28.416Z,98235.94
2022-11-17T04:18:58.857Z,98269.91
2022-11-17T04:21:25.727Z,98261.56
2022-11-17T04:23:52.193Z,98264.59
2022-11-17T04:26:37.367Z,98235.50
2022-11-17T04:29:04.153Z,98262.53
2022-11-17T04:31:31.444Z,98262.00
2022-11-17T04:34:03.188Z,98242.25
2022-11-17T04:36:32.405Z,98252.06
2022-11-17T04:38:59.544Z,98253.53
2022-11-17T04:41:46.171Z,98254.13
2022-11-17T04:44:14.229Z,98214.66
2022-11-17T04:46:41.182Z,98237.06
2022-11-17T04:49:08.544Z,98238.75
2022-11-17T04:51:36.237Z,98231.44
2022-11-17T04:54:03.401Z,98231.91
2022-11-17T04:56:30.021Z,98242.06
2022-11-17T04:58:56.747Z,98210.63
2022-11-17T05:01:25.118Z,98197.75
2022-11-17T05:03:53.557Z,98200.50
2022-11-17T05:06:25.143Z,98225.44
2022-11-17T05:08:55.471Z,98238.13
2022-11-17T05:11:42.185Z,98232.09
2022-11-17T05:14:08.716Z,98193.59
2022-11-17T05:16:53.831Z,98205.38
2022-11-17T05:19:22.904Z,98218.97
2022-11-17T05:21:49.731Z,98217.72
2022-11-17T05:24:16.702Z,98182.31
2022-11-17T05:26:44.581Z,98149.66
2022-11-17T05:29:12.391Z,98199.44
2022-11-17T05:31:39.217Z,98200.72
2022-11-17T05:34:07.574Z,98187.94
2022-11-17T05:36:34.489Z,98140.41
2022-11-17T05:39:01.217Z,98187.38
2022-11-17T05:41:28.812Z,98175.38
2022-11-17T05:43:56.243Z,98179.59
2022-11-17T05:46:23.291Z,98176.13
2022-11-17T05:48:50.461Z,98169.09
2022-11-17T05:51:21.494Z,98170.09
2022-11-17T05:53:48.917Z,98162.41
2022-11-17T05:56:40.753Z,98134.94
2022-11-17T05:59:10.202Z,98154.25
2022-11-17T06:01:41.041Z,98157.56
2022-11-17T06:04:08.283Z,98104.84
2022-11-17T06:06:36.354Z,98164.44
2022-11-17T06:09:03.589Z,98169.63
2022-11-17T06:11:30.286Z,98153.28
2022-11-17T06:13:56.751Z,98129.56
2022-11-17T06:16:24.767Z,98168.00
2022-11-17T06:18:56.024Z,98185.31
2022-11-17T06:21:22.642Z,98177.34
2022-11-17T06:23:49.497Z,98187.84
2022-11-17T06:26:16.301Z,98129.94
2022-11-17T06:28:45.887Z,98171.34
2022-11-17T06:31:12.406Z,98170.47
2022-11-17T06:33:39.069Z,98164.97
2022-11-17T06:36:07.582Z,98135.47
2022-11-17T06:38:35.793Z,98186.03
2022-11-17T06:41:07.532Z,98181.09
2022-11-17T06:43:38.346Z,98137.81
2022-11-17T06:46:05.586Z,98186.56
2022-11-17T06:48:35.532Z,98187.44
2022-11-17T06:51:04.595Z,98147.66
2022-11-17T06:53:33.120Z,98187.16
2022-11-17T06:56:09.698Z,98171.09
2022-11-17T06:58:38.292Z,98185.56
2022-11-17T07:01:10.366Z,98177.72
2022-11-17T07:03:38.492Z,98174.84
2022-11-17T07:06:06.768Z,98179.50
2022-11-17T07:08:34.339Z,98184.13
2022-11-17T07:11:09.381Z,98175.16
2022-11-17T07:13:36.675Z,98174.84
2022-11-17T07:16:06.954Z,98172.78
2022-11-17T07:18:34.193Z,98176.56
2022-11-17T07:21:06.365Z,98181.53
2022-11-17T07:23:34.656Z,98193.09
2022-11-17T07:26:01.609Z,98183.28
2022-11-17T07:28:28.525Z,98193.00
2022-11-17T07:30:55.595Z,98191.25
2022-11-17T07:33:22.755Z,98186.69
2022-11-17T07:35:49.342Z,98188.25
2022-11-17T07:38:15.904Z,98190.69
2022-11-17T07:40:42.414Z,98172.13
2022-11-17T07:43:08.989Z,98142.84
2022-11-17T07:45:36.190Z,98198.38
2022-11-17T07:48:04.160Z,98198.94
2022-11-17T07:50:31.111Z,98202.88
2022-11-17T07:52:57.742Z,98207.84
2022-11-17T07:55:25.561Z,98190.84
2022-11-17T07:57:56.727Z,98202.47
2022-11-17T08:00:23.370Z,98197.66
2022-11-17T08:02:50.389Z,98195.72
2022-11-17T08:05:17.533Z,98197.34
2022-11-17T08:07:45.299Z,98200.50
2022-11-17T08:10:13.521Z,98202.72
2022-11-17T08:12:40.014Z,98206.16
2022-11-17T08:15:07.400Z,98203.44
2022-11-17T08:17:34.018Z,98156.09
2022-11-17T08:20:00.807Z,98183.66
2022-11-17T08:22:27.286Z,98202.81
2022-11-17T08:24:53.788Z,98203.78
2022-11-17T08:27:20.276Z,98173.03
2022-11-17T08:29:46.804Z,98174.97
2022-11-17T08:32:13.315Z,98216.50
2022-11-17T08:34:39.823Z,98196.41
2022-11-17T08:37:06.834Z,98225.47
2022-11-17T08:39:33.368Z,98193.00
2022-11-17T08:41:59.890Z,98228.53
2022-11-17T08:44:26.399Z,98221.66
2022-11-17T08:46:52.882Z,98230.59
2022-11-17T08:49:19.586Z,98232.44
2022-11-17T08:51:46.067Z,98236.13
2022-11-17T08:54:12.722Z,98238.84
2022-11-17T08:56:39.349Z,98240.78
2022-11-17T08:59:06.046Z,98210.38
2022-11-17T09:01:32.627Z,98249.59
2022-11-17T09:03:59.354Z,98251.44
2022-11-17T09:06:25.871Z,98238.22
2022-11-17T09:08:55.623Z,98257.81
2022-11-17T09:11:22.413Z,98249.03
2022-11-17T09:13:48.949Z,98267.91
2022-11-17T09:16:16.477Z,98268.97
2022-11-17T09:18:44.026Z,98235.03
2022-11-17T09:21:13.658Z,98290.59
2022-11-17T09:23:40.330Z,98283.81
2022-11-17T09:26:09.945Z,98284.94
2022-11-17T09:28:37.033Z,98262.13
2022-11-17T09:31:14.728Z,98258.53
2022-11-17T09:33:42.578Z,98295.91
2022-11-17T09:36:10.191Z,98309.09
2022-11-17T09:38:37.882Z,98281.34
2022-11-17T09:41:26.511Z,98312.59
2022-11-17T09:44:03.145Z,98317.91
2022-11-17T09:46:36.344Z,98314.78
2022-11-17T09:49:35.098Z,98322.19
2022-11-17T09:52:41.057Z,98326.59
2022-11-17T09:55:33.886Z,98324.88
2022-11-17T09:58:19.884Z,98329.88
2022-11-17T10:00:48.835Z,98317.34
2022-11-17T10:03:20.461Z,98327.41
2022-11-17T10:05:47.726Z,98325.50
2022-11-17T10:08:47.258Z,98321.63
2022-11-17T10:11:31.582Z,98304.38
2022-11-17T10:14:15.880Z,98323.81
2022-11-17T10:16:51.376Z,98320.69
2022-11-17T10:19:21.977Z,98324.16
2022-11-17T10:22:21.054Z,98325.69
2022-11-17T10:24:54.929Z,98317.75
2022-11-17T10:27:35.065Z,98310.03
2022-11-17T10:30:07.060Z,98331.91
2022-11-17T10:32:40.667Z,98341.78
2022-11-17T10:35:27.239Z,98348.00
2022-11-17T10:38:04.196Z,98343.63
2022-11-17T10:40:32.785Z,98344.31
2022-11-17T10:43:03.947Z,98339.75
2022-11-17T10:45:30.620Z,98331.41
2022-11-17T10:48:16.388Z,98349.81
2022-11-17T10:51:15.197Z,98355.44
2022-11-17T10:53:46.803Z,98352.88
2022-11-17T10:56:18.408Z,98350.84
2022-11-17T10:59:12.685Z,98348.88
2022-11-17T11:01:41.982Z,98363.84
2022-11-17T11:04:36.832Z,98349.53
2022-11-17T11:07:07.768Z,98347.97
2022-11-17T11:09:37.471Z,98343.50
2022-11-17T11:12:05.512Z,98324.03
2022-11-17T11:14:41.305Z,98342.56
2022-11-17T11:17:13.006Z,98307.97
2022-11-17T11:19:41.447Z,98353.88
2022-11-17T11:22:19.736Z,98352.34
2022-11-17T11:25:15.469Z,98345.63
2022-11-17T11:28:05.232Z,98345.31
2022-11-17T11:30:38.050Z,98347.91
2022-11-17T11:33:34.312Z,98360.50
2022-11-17T11:36:25.504Z,98361.97
2022-11-17T11:39:22.452Z,98367.31
2022-11-17T11:42:07.732Z,98378.41
2022-11-17T11:44:56.553Z,98379.47
2022-11-17T11:47:40.104Z,98373.91
2022-11-17T11:50:18.423Z,98360.69
2022-11-17T11:52:48.314Z,98380.41
2022-11-17T11:55:21.896Z,98376.94
2022-11-17T11:57:54.775Z,98376.59
2022-11-17T12:00:21.496Z,98373.84
2022-11-17T12:03:15.631Z,98380.19
2022-11-17T12:06:28.827Z,98392.63
2022-11-17T12:09:25.331Z,98390.53
2022-11-17T12:12:01.440Z,98382.06
2022-11-17T12:14:33.597Z,98370.09
2022-11-17T12:17:26.352Z,98415.88
2022-11-17T12:19:54.820Z,98410.94
2022-11-17T12:22:42.259Z,98410.50
2022-11-17T12:25:18.516Z,98410.41
2022-11-17T12:27:55.100Z,98401.47
2022-11-17T12:30:30.669Z,98422.84
2022-11-17T12:32:58.534Z,98406.41
2022-11-17T12:35:31.794Z,98413.38
2022-11-17T12:38:16.682Z,98415.03
2022-11-17T12:40:49.716Z,98420.34
2022-11-17T12:43:16.310Z,98415.44
2022-11-17T12:45:54.632Z,98417.84
2022-11-17T12:48:38.350Z,98409.75
2022-11-17T12:51:15.954Z,98413.22
2022-11-17T12:54:10.953Z,98414.44
2022-11-17T12:57:09.593Z,98419.97
2022-11-17T13:00:00.052Z,98426.88
2022-11-17T13:02:46.622Z,98425.03
2022-11-17T13:05:19.621Z,98434.97
2022-11-17T13:07:46.165Z,98445.66
2022-11-17T13:10:29.421Z,98432.25
2022-11-17T13:13:11.072Z,98441.47
2022-11-17T13:15:37.915Z,98434.56
2022-11-17T13:18:10.724Z,98438.47
2022-11-17T13:20:38.713Z,98438.91
2022-11-17T13:23:20.078Z,98438.41
2022-11-17T13:25:46.588Z,98454.97
2022-11-17T13:28:30.679Z,98441.34
2022-11-17T13:30:58.696Z,98449.22
2022-11-17T13:33:26.036Z,98460.53
2022-11-17T13:36:08.229Z,98449.00
2022-11-17T13:38:35.267Z,98394.16
2022-11-17T13:41:02.759Z,98447.50
2022-11-17T13:43:38.076Z,98451.41
2022-11-17T13:46:06.274Z,98422.91
2022-11-17T13:48:38.210Z,98456.03
2022-11-17T13:51:22.995Z,98461.28
2022-11-17T13:54:06.891Z,98425.00
2022-11-17T13:56:41.304Z,98473.94
2022-11-17T13:59:35.647Z,98469.69
2022-11-17T14:02:24.287Z,98472.69
2022-11-17T14:05:09.427Z,98475.50
2022-11-17T14:07:37.919Z,98473.91
2022-11-17T14:10:14.817Z,98455.03
2022-11-17T14:12:41.631Z,98457.69
2022-11-17T14:15:15.250Z,98471.63
2022-11-17T14:17:47.866Z,98467.25
2022-11-17T14:20:23.654Z,98462.72
2022-11-17T14:23:01.384Z,98467.53
2022-11-17T14:25:28.967Z,98464.50
2022-11-17T14:27:56.081Z,98467.53
2022-11-17T14:30:22.936Z,98443.34
2022-11-17T14:32:49.471Z,98466.91
2022-11-17T14:37:47.521Z,98441.16
2022-11-17T14:40:15.289Z,98473.66
2022-11-17T14:42:41.963Z,98431.59
2022-11-17T14:45:12.256Z,98458.81
2022-11-17T14:47:39.498Z,98483.03
2022-11-17T14:50:07.230Z,98474.50
2022-11-17T14:52:33.689Z,98490.19
2022-11-17T14:55:00.953Z,98479.88
2022-11-17T14:57:27.512Z,98485.44
2022-11-17T14:59:54.065Z,98475.91
2022-11-17T15:02:20.494Z,98489.31
2022-11-17T15:04:51.534Z,98492.91
2022-11-17T15:07:18.361Z,98498.66
2022-11-17T15:09:44.960Z,98504.44
2022-11-17T15:12:11.502Z,98500.75
2022-11-17T15:14:37.981Z,98502.06
2022-11-17T15:17:05.744Z,98499.19
2022-11-17T15:19:36.443Z,98481.84
2022-11-17T15:22:02.884Z,98509.28
2022-11-17T15:24:30.488Z,98515.53
2022-11-17T15:26:57.027Z,98510.09
2022-11-17T15:29:23.559Z,98510.78
2022-11-17T15:31:50.113Z,98517.38
2022-11-17T15:34:20.151Z,98513.53
2022-11-17T15:36:47.564Z,98519.81
2022-11-17T15:39:14.439Z,98518.91
2022-11-17T15:41:41.319Z,98525.16
2022-11-17T15:44:07.992Z,98528.44
2022-11-17T15:46:34.790Z,98511.41
2022-11-17T15:49:01.426Z,98516.28
2022-11-17T15:51:28.626Z,98531.41
2022-11-17T15:53:59.890Z,98531.19
2022-11-17T15:56:28.384Z,98535.63
2022-11-17T15:59:03.164Z,98541.88
2022-11-17T16:01:31.331Z,98544.72
2022-11-17T16:04:00.843Z,98540.31
2022-11-17T16:06:28.389Z,98496.69
2022-11-17T16:08:55.411Z,98541.22
2022-11-17T16:11:22.273Z,98548.78
2022-11-17T16:13:52.097Z,98530.63
2022-11-17T16:16:18.691Z,98502.78
2022-11-17T16:18:45.210Z,98538.88
2022-11-17T16:21:12.873Z,98544.94
2022-11-17T16:23:40.860Z,98532.72
2022-11-17T16:26:08.750Z,98527.09
2022-11-17T16:28:35.313Z,98526.59
2022-11-17T16:31:12.410Z,98517.06
2022-11-17T16:33:38.926Z,98536.25
2022-11-17T16:36:06.407Z,98514.25
2022-11-17T16:38:32.897Z,98565.06
2022-11-17T16:41:02.441Z,98560.28
2022-11-17T16:43:29.052Z,98511.13
2022-11-17T16:45:56.681Z,98533.81
2022-11-17T16:48:23.295Z,98559.09
2022-11-17T16:50:49.952Z,98546.22
2022-11-17T16:53:16.565Z,98559.91
2022-11-17T16:55:43.104Z,98550.38
2022-11-17T16:58:10.214Z,98558.47
2022-11-17T17:00:36.781Z,98539.25
2022-11-17T17:03:03.925Z,98559.06
2022-11-17T17:05:30.534Z,98551.28
2022-11-17T17:07:57.105Z,98562.06
2022-11-17T17:10:24.382Z,98564.53
2022-11-17T17:12:51.240Z,98546.72
2022-11-17T17:15:17.890Z,98563.19
2022-11-17T17:17:44.379Z,98565.63
2022-11-17T17:20:11.281Z,98542.13
2022-11-17T17:22:37.748Z,98578.50
2022-11-17T17:25:04.698Z,98576.59
2022-11-17T17:27:31.359Z,98550.19
2022-11-17T17:29:57.909Z,98580.88
2022-11-17T17:32:24.408Z,98573.00
2022-11-17T17:34:51.160Z,98582.22
2022-11-17T17:37:18.347Z,98549.50
2022-11-17T17:39:44.811Z,98584.66
2022-11-17T17:42:15.018Z,98584.84
2022-11-17T17:44:41.867Z,98586.72
2022-11-17T17:47:08.440Z,98559.50
2022-11-17T17:49:34.965Z,98588.06
2022-11-17T17:52:01.489Z,98558.16
2022-11-17T17:54:28.169Z,98538.56
2022-11-17T17:56:59.893Z,98545.91
2022-11-17T17:59:26.419Z,98589.00
2022-11-17T18:01:53.330Z,98599.28
2022-11-17T18:04:19.953Z,98584.91
2022-11-17T18:06:47.862Z,98603.66
2022-11-17T18:09:18.790Z,98593.22
2022-11-17T18:11:48.016Z,98598.75
2022-11-17T18:14:14.745Z,98607.94
2022-11-17T18:16:41.514Z,98553.59
2022-11-17T18:19:09.119Z,98551.78
2022-11-17T18:21:36.254Z,98613.13
2022-11-17T18:24:03.571Z,98612.81
2022-11-17T18:26:32.887Z,98609.81
2022-11-17T18:29:07.483Z,98617.50
2022-11-17T18:31:35.339Z,98612.44
2022-11-17T18:34:13.333Z,98620.34
2022-11-17T18:36:40.059Z,98623.63
2022-11-17T18:39:06.578Z,98617.34
2022-11-17T18:41:34.121Z,98608.25
2022-11-17T18:44:01.407Z,98630.69
2022-11-17T18:46:30.043Z,98631.44
2022-11-17T18:48:57.250Z,98641.44
2022-11-17T18:51:26.572Z,98643.38
2022-11-17T18:53:54.284Z,98591.03
2022-11-17T18:56:23.422Z,98601.28
2022-11-17T18:58:50.358Z,98639.03
2022-11-17T19:01:25.047Z,98644.22
2022-11-17T19:03:53.532Z,98653.91
2022-11-17T19:06:21.928Z,98627.09
2022-11-17T19:08:48.955Z,98633.47
2022-11-17T19:11:17.247Z,98659.66
2022-11-17T19:13:44.108Z,98609.25
2022-11-17T19:16:19.729Z,98667.91
2022-11-17T19:18:47.992Z,98623.44
2022-11-17T19:21:16.426Z,98667.94
2022-11-17T19:23:49.536Z,98665.59
2022-11-17T19:26:19.207Z,98669.44
2022-11-17T19:28:45.643Z,98630.19
2022-11-17T19:31:15.423Z,98642.25
2022-11-17T19:33:42.034Z,98687.59
2022-11-17T19:36:11.463Z,98688.03
2022-11-17T19:38:38.901Z,98689.72
2022-11-17T19:41:11.222Z,98690.28
2022-11-17T19:43:43.393Z,98627.16
2022-11-17T19:46:13.625Z,98576.84
2022-11-17T19:48:40.827Z,98697.44
2022-11-17T19:51:20.424Z,98701.06
2022-11-17T19:53:52.288Z,98700.47
2022-11-17T19:56:19.404Z,98710.47
2022-11-17T19:58:46.644Z,98707.03
2022-11-17T20:01:24.647Z,98684.34
2022-11-17T20:03:51.229Z,98613.88
2022-11-17T20:06:20.910Z,98679.28
2022-11-17T20:08:48.305Z,98718.88
2022-11-17T20:11:20.218Z,98698.91
2022-11-17T20:13:47.198Z,98714.59
2022-11-17T20:16:16.047Z,98722.50
2022-11-17T20:18:43.645Z,98732.41
2022-11-17T20:21:11.237Z,98683.03
2022-11-17T20:23:38.665Z,98736.34
2022-11-17T20:26:15.685Z,98733.63
2022-11-17T20:28:42.368Z,98701.09
2022-11-17T20:31:14.252Z,98688.69
2022-11-17T20:33:42.220Z,98743.06
2022-11-17T20:36:11.272Z,98743.25
2022-11-17T20:38:38.402Z,98753.03
2022-11-17T20:41:05.237Z,98732.50
2022-11-17T20:43:32.276Z,98758.00
2022-11-17T20:45:59.319Z,98755.72
2022-11-17T20:48:27.692Z,98764.09
2022-11-17T20:50:58.098Z,98758.25
2022-11-17T20:53:24.827Z,98767.75
2022-11-17T20:55:51.722Z,98756.00
2022-11-17T20:58:18.278Z,98767.00
2022-11-17T21:00:44.937Z,98771.97
2022-11-17T21:03:11.552Z,98747.25
2022-11-17T21:05:38.088Z,98698.81
2022-11-17T21:08:04.871Z,98780.94
2022-11-17T21:10:31.392Z,98782.16
2022-11-17T21:12:58.691Z,98784.63
2022-11-17T21:15:25.181Z,98794.09
2022-11-17T21:18:10.542Z,98792.13
2022-11-17T21:20:37.109Z,98798.53
2022-11-17T21:23:03.625Z,98800.91
2022-11-17T21:25:30.065Z,98766.88
2022-11-17T21:27:56.674Z,98804.28
2022-11-17T21:30:23.157Z,98761.28
2022-11-17T21:32:49.679Z,98805.88
2022-11-17T21:35:16.255Z,98813.25
2022-11-17T21:37:42.733Z,98791.50
2022-11-17T21:40:09.550Z,98811.72
2022-11-17T21:42:36.253Z,98814.63
2022-11-17T21:45:02.798Z,98807.75
2022-11-17T21:47:29.247Z,98770.69
2022-11-17T21:49:55.814Z,98818.28
2022-11-17T21:52:22.357Z,98816.81
2022-11-17T21:54:48.809Z,98695.91
2022-11-17T21:57:15.296Z,98818.19
2022-11-17T21:59:41.765Z,98825.88
2022-11-17T22:02:09.759Z,98823.69
2022-11-17T22:04:36.223Z,98807.75
2022-11-17T22:07:03.234Z,98809.59
2022-11-17T22:09:32.624Z,98820.47
2022-11-17T22:11:59.110Z,98811.91
2022-11-17T22:14:25.760Z,98805.13
2022-11-17T22:16:53.185Z,98840.88
2022-11-17T22:19:21.853Z,98848.69
2022-11-17T22:21:50.926Z,98843.03
2022-11-17T22:24:18.169Z,98850.50
2022-11-17T22:26:45.089Z,98806.38
2022-11-17T22:29:14.547Z,98848.63
2022-11-17T22:31:41.544Z,98807.59
2022-11-17T22:34:08.387Z,98847.22
2022-11-17T22:36:34.945Z,98839.53
2022-11-17T22:39:01.428Z,98841.13
2022-11-17T22:41:27.916Z,98859.88
2022-11-17T22:43:56.070Z,98859.59
2022-11-17T22:46:24.949Z,98833.69
2022-11-17T22:48:52.031Z,98873.94
2022-11-17T22:51:37.665Z,98868.59
2022-11-17T22:54:05.701Z,98862.75
2022-11-17T22:56:32.664Z,98861.00
2022-11-17T22:59:00.007Z,98865.59
2022-11-17T23:01:26.749Z,98873.72
2022-11-17T23:03:53.281Z,98862.78
2022-11-17T23:06:22.510Z,98871.41
2022-11-17T23:08:49.002Z,98820.13
2022-11-17T23:11:35.933Z,98869.81
2022-11-17T23:14:02.166Z,98843.09
2022-11-17T23:16:28.656Z,98824.91
2022-11-17T23:18:55.768Z,98853.34
2022-11-17T23:21:22.831Z,98798.41
2022-11-17T23:23:49.543Z,98819.09
2022-11-17T23:26:16.137Z,98883.56
2022-11-17T23:28:43.466Z,98839.84
2022-11-17T23:31:12.581Z,98883.56
2022-11-17T23:33:41.734Z,98874.41
2022-11-17T23:36:19.934Z,98881.19
2022-11-17T23:38:47.257Z,98894.81
2022-11-17T23:41:15.719Z,98870.47
2022-11-17T23:43:42.619Z,98894.34
2022-11-17T23:46:14.570Z,98902.38
2022-11-17T23:48:41.399Z,98901.66
2022-11-17T23:51:09.693Z,98908.72
2022-11-17T23:53:36.373Z,98903.63
2022-11-17T23:56:04.248Z,98910.78
2022-11-17T23:58:31.333Z,98919.09
